Terminal Aerodrome Forecast
Issued by NWS

Home | Current Version | Previous Version | Text Only | Print | Product List | Glossary On
Versions: 1 2 3 4 5 6 7 8 9 10 11 12 13 14 15 16 17 18 19 20 21 22 23 24 25 26
000
FTUS46 KMTR 210250 AAA
TAFSFO
TAF AMD
KSFO 210250Z 2103/2206 26013KT P6SM FEW050 BKN150
     FM210400 26008KT P6SM SCT050 BKN150
     FM210900 VRB04KT P6SM SCT030 BKN100
     FM211200 13004KT P6SM VCSH SCT030 BKN050
     FM211800 10005KT P6SM SCT030 SCT050
     FM212200 19006KT P6SM SCT050
     FM220000 26006KT P6SM SCT050=

USA.gov is the U.S. government's official web portal to all federal, state and local government web resources and services.